createdAt,value
2023-02-25T00:02:02.585Z,15.67
2023-02-25T00:04:32.374Z,11.60
2023-02-25T00:07:02.732Z,16.90
2023-02-25T00:09:32.052Z,17.17
2023-02-25T00:12:00.617Z,9.30
2023-02-25T00:14:29.297Z,14.23
2023-02-25T00:16:57.935Z,15.40
2023-02-25T00:19:27.488Z,25.30
2023-02-25T00:21:57.327Z,15.97
2023-02-25T00:24:27.441Z,17.67
2023-02-25T00:26:55.826Z,11.00
2023-02-25T00:29:24.250Z,21.97
2023-02-25T00:31:52.843Z,10.73
2023-02-25T00:34:22.691Z,13.30
2023-02-25T00:36:51.198Z,12.77
2023-02-25T00:39:20.034Z,14.20
2023-02-25T00:41:49.727Z,12.03
2023-02-25T00:44:18.200Z,9.97
2023-02-25T00:46:46.658Z,13.97
2023-02-25T00:49:30.586Z,17.40
2023-02-25T00:52:01.151Z,15.50
2023-02-25T00:54:30.192Z,12.00
2023-02-25T00:57:00.055Z,9.13
2023-02-25T00:59:28.689Z,13.83
2023-02-25T01:01:57.223Z,14.17
2023-02-25T01:04:26.460Z,20.80
2023-02-25T01:06:55.457Z,22.80
2023-02-25T01:09:23.848Z,13.87
2023-02-25T01:11:52.705Z,20.07
2023-02-25T01:14:24.957Z,19.70
2023-02-25T01:16:56.283Z,17.80
2023-02-25T01:19:27.085Z,12.90
2023-02-25T01:21:58.324Z,11.97
2023-02-25T01:24:29.153Z,12.60
2023-02-25T01:27:01.329Z,8.40
2023-02-25T01:29:33.660Z,23.03
2023-02-25T01:32:04.682Z,17.17
2023-02-25T01:34:33.474Z,15.17
2023-02-25T01:37:04.932Z,14.07
2023-02-25T01:39:34.231Z,15.13
2023-02-25T01:42:13.785Z,14.10
2023-02-25T01:45:32.710Z,18.47
2023-02-25T01:48:12.694Z,18.77
2023-02-25T01:50:51.759Z,13.83
2023-02-25T01:53:25.384Z,13.07
2023-02-25T01:55:54.756Z,14.60
2023-02-25T01:58:23.922Z,15.30
2023-02-25T02:00:55.522Z,28.40
2023-02-25T02:03:28.301Z,20.40
2023-02-25T02:06:06.486Z,12.83
2023-02-25T02:08:36.340Z,13.83
2023-02-25T02:11:06.733Z,15.03
2023-02-25T02:13:38.187Z,13.40
2023-02-25T02:16:32.836Z,12.23
2023-02-25T02:19:20.218Z,15.67
2023-02-25T02:22:04.852Z,12.47
2023-02-25T02:25:17.344Z,13.47
2023-02-25T02:28:10.494Z,14.47
2023-02-25T02:30:53.422Z,12.80
2023-02-25T02:33:31.212Z,14.10
2023-02-25T02:36:09.456Z,16.20
2023-02-25T02:38:44.454Z,21.13
2023-02-25T02:41:26.158Z,18.07
2023-02-25T02:44:04.628Z,15.50
2023-02-25T02:46:38.585Z,17.37
2023-02-25T02:49:15.098Z,15.37
2023-02-25T02:51:52.911Z,18.60
2023-02-25T02:54:25.736Z,17.90
2023-02-25T02:56:57.330Z,19.40
2023-02-25T02:59:31.825Z,17.83
2023-02-25T03:02:06.550Z,14.60
2023-02-25T03:04:43.405Z,19.13
2023-02-25T03:07:14.559Z,18.47
2023-02-25T03:09:50.582Z,26.77
2023-02-25T03:12:19.306Z,17.40
2023-02-25T03:14:48.104Z,15.73
2023-02-25T03:17:21.200Z,24.40
2023-02-25T03:19:57.679Z,13.53
2023-02-25T03:22:33.099Z,15.47
2023-02-25T03:25:09.358Z,12.67
2023-02-25T03:27:41.378Z,9.60
2023-02-25T03:30:23.380Z,15.83
2023-02-25T03:32:59.317Z,18.23
2023-02-25T03:35:31.716Z,23.97
2023-02-25T03:38:05.223Z,16.87
2023-02-25T03:40:37.739Z,17.47
2023-02-25T03:43:11.535Z,15.07
2023-02-25T03:45:43.898Z,10.30
2023-02-25T03:48:15.183Z,16.70
2023-02-25T03:50:52.526Z,13.10
2023-02-25T03:53:21.322Z,10.73
2023-02-25T03:55:54.603Z,8.93
2023-02-25T03:58:25.034Z,9.73
2023-02-25T04:00:58.851Z,11.67
2023-02-25T04:03:27.299Z,10.70
2023-02-25T04:05:57.415Z,7.83
2023-02-25T04:08:27.630Z,10.07
2023-02-25T04:10:56.081Z,13.37
2023-02-25T04:13:24.712Z,8.80
2023-02-25T04:15:53.229Z,10.60
2023-02-25T04:18:21.580Z,17.63
2023-02-25T04:20:49.870Z,7.87
2023-02-25T04:23:20.259Z,13.97
2023-02-25T04:25:48.647Z,18.07
2023-02-25T04:28:17.268Z,9.90
2023-02-25T04:30:45.947Z,8.97
2023-02-25T04:33:14.863Z,12.47
2023-02-25T04:35:44.242Z,15.87
2023-02-25T04:38:12.663Z,13.70
2023-02-25T04:40:42.885Z,13.07
2023-02-25T04:43:11.348Z,16.40
2023-02-25T04:45:39.847Z,15.37
2023-02-25T04:48:08.622Z,15.40
2023-02-25T04:50:37.052Z,11.97
2023-02-25T04:53:05.764Z,15.93
2023-02-25T04:55:37.168Z,15.43
2023-02-25T04:58:06.822Z,14.00
2023-02-25T05:00:35.190Z,18.90
2023-02-25T05:03:03.702Z,14.37
2023-02-25T05:05:32.239Z,14.53
2023-02-25T05:08:00.571Z,15.77
2023-02-25T05:10:29.037Z,11.37
2023-02-25T05:12:58.560Z,13.93
2023-02-25T05:15:28.451Z,12.43
2023-02-25T05:17:57.141Z,10.90
2023-02-25T05:20:25.622Z,19.77
2023-02-25T05:22:54.126Z,14.70
2023-02-25T05:25:22.656Z,20.00
2023-02-25T05:27:51.422Z,10.07
2023-02-25T05:30:20.714Z,13.30
2023-02-25T05:32:51.136Z,18.83
2023-02-25T05:35:20.305Z,15.23
2023-02-25T05:37:48.820Z,15.57
2023-02-25T05:40:18.171Z,25.37
2023-02-25T05:42:49.738Z,13.93
2023-02-25T05:45:19.040Z,13.93
2023-02-25T05:47:47.678Z,13.43
2023-02-25T05:50:17.858Z,23.27
2023-02-25T05:52:46.905Z,17.53
2023-02-25T05:55:18.035Z,14.20
2023-02-25T05:57:46.476Z,17.87
2023-02-25T06:00:21.413Z,13.03
2023-02-25T06:02:49.907Z,18.60
2023-02-25T06:05:20.081Z,16.00
2023-02-25T06:07:48.420Z,12.57
2023-02-25T06:10:17.533Z,14.37
2023-02-25T06:12:49.206Z,17.37
2023-02-25T06:15:18.160Z,26.23
2023-02-25T06:17:46.714Z,23.77
2023-02-25T06:20:16.708Z,19.07
2023-02-25T06:22:46.739Z,29.37
2023-02-25T06:25:15.308Z,15.87
2023-02-25T06:27:43.937Z,26.83
2023-02-25T06:30:13.848Z,15.80
2023-02-25T06:32:42.474Z,28.40
2023-02-25T06:35:11.388Z,14.80
2023-02-25T06:37:40.500Z,11.80
2023-02-25T06:40:14.416Z,19.77
2023-02-25T06:42:43.121Z,20.30
2023-02-25T06:45:12.205Z,17.63
2023-02-25T06:47:40.925Z,19.27
2023-02-25T06:50:11.139Z,20.33
2023-02-25T06:52:40.502Z,16.20
2023-02-25T06:55:11.802Z,19.07
2023-02-25T06:57:40.176Z,24.63
2023-02-25T07:00:11.008Z,12.33
2023-02-25T07:02:40.084Z,15.63
2023-02-25T07:05:09.582Z,24.33
2023-02-25T07:07:37.976Z,30.03
2023-02-25T07:10:10.654Z,14.03
2023-02-25T07:12:39.003Z,21.07
2023-02-25T07:15:09.705Z,19.73
2023-02-25T07:17:38.855Z,14.40
2023-02-25T07:20:09.030Z,13.93
2023-02-25T07:22:37.528Z,12.77
2023-02-25T07:25:07.891Z,17.70
2023-02-25T07:27:37.784Z,17.00
2023-02-25T07:30:07.462Z,12.07
2023-02-25T07:32:36.000Z,17.37
2023-02-25T07:35:04.900Z,18.20
2023-02-25T07:37:33.585Z,17.33
2023-02-25T07:40:01.953Z,21.07
2023-02-25T07:42:30.751Z,17.00
2023-02-25T07:45:02.845Z,19.97
2023-02-25T07:47:31.333Z,18.13
2023-02-25T07:50:00.117Z,16.87
2023-02-25T07:52:29.225Z,19.03
2023-02-25T07:54:57.684Z,16.73
2023-02-25T07:57:26.189Z,14.63
2023-02-25T07:59:54.646Z,15.07
2023-02-25T08:02:24.548Z,17.03
2023-02-25T08:04:53.237Z,13.43
2023-02-25T08:07:21.672Z,14.07
2023-02-25T08:09:50.069Z,9.93
2023-02-25T08:12:18.525Z,14.63
2023-02-25T08:14:46.950Z,16.67
2023-02-25T08:17:16.093Z,16.67
2023-02-25T08:19:46.088Z,16.07
2023-02-25T08:22:14.489Z,10.73
2023-02-25T08:24:43.031Z,14.47
2023-02-25T08:27:11.624Z,20.80
2023-02-25T08:29:40.088Z,11.60
2023-02-25T08:32:09.881Z,12.80
2023-02-25T08:34:38.512Z,15.90
2023-02-25T08:37:11.321Z,17.00
2023-02-25T08:39:39.979Z,15.63
2023-02-25T08:42:08.408Z,18.33
2023-02-25T08:44:36.934Z,20.50
2023-02-25T08:47:05.852Z,18.27
2023-02-25T08:49:34.394Z,17.97
2023-02-25T08:52:02.812Z,18.50
2023-02-25T08:54:32.685Z,24.00
2023-02-25T08:57:01.354Z,16.50
2023-02-25T08:59:36.113Z,15.10
2023-02-25T09:02:06.506Z,13.23
2023-02-25T09:04:35.961Z,22.97
2023-02-25T09:07:04.626Z,17.10
2023-02-25T09:09:34.997Z,22.33
2023-02-25T09:12:05.215Z,27.23
2023-02-25T09:14:33.760Z,17.20
2023-02-25T09:17:03.889Z,17.87
2023-02-25T09:19:38.417Z,17.07
2023-02-25T09:22:07.580Z,22.00
2023-02-25T09:24:37.966Z,17.07
2023-02-25T09:27:07.895Z,18.10
2023-02-25T09:29:36.925Z,19.87
2023-02-25T09:32:06.019Z,14.50
2023-02-25T09:34:34.914Z,13.50
2023-02-25T09:37:06.702Z,15.87
2023-02-25T09:39:37.998Z,23.27
2023-02-25T09:42:10.992Z,20.20
2023-02-25T09:44:44.644Z,16.57
2023-02-25T09:47:20.770Z,18.40
2023-02-25T09:49:56.813Z,17.43
2023-02-25T09:52:29.896Z,13.10
2023-02-25T09:55:08.379Z,20.07
2023-02-25T09:57:42.087Z,19.67
2023-02-25T10:00:19.836Z,15.10
2023-02-25T10:02:55.320Z,24.00
2023-02-25T10:05:30.308Z,13.57
2023-02-25T10:08:09.533Z,18.37
2023-02-25T10:10:50.923Z,20.50
2023-02-25T10:13:31.222Z,17.77
2023-02-25T10:16:10.270Z,12.57
2023-02-25T10:18:58.600Z,17.63
2023-02-25T10:21:44.475Z,11.73
2023-02-25T10:24:29.658Z,9.73
2023-02-25T10:27:07.470Z,9.10
2023-02-25T10:29:42.192Z,8.13
2023-02-25T10:32:21.251Z,10.73
2023-02-25T10:34:51.906Z,8.70
2023-02-25T10:37:27.220Z,15.23
2023-02-25T10:39:59.973Z,9.93
2023-02-25T10:42:30.200Z,8.00
2023-02-25T10:45:08.444Z,10.20
2023-02-25T10:47:40.149Z,10.77
2023-02-25T10:50:42.995Z,13.90
2023-02-25T10:53:17.141Z,5.50
2023-02-25T10:55:55.113Z,6.67
2023-02-25T10:58:36.546Z,6.07
2023-02-25T11:01:15.177Z,3.23
2023-02-25T11:03:55.152Z,2.07
2023-02-25T11:06:29.735Z,3.10
2023-02-25T11:09:00.688Z,4.87
2023-02-25T11:11:32.473Z,2.87
2023-02-25T11:14:06.738Z,2.93
2023-02-25T11:16:38.895Z,2.30
2023-02-25T11:19:16.129Z,4.23
2023-02-25T11:21:45.350Z,1.83
2023-02-25T11:24:17.514Z,2.13
2023-02-25T11:26:49.105Z,1.90
2023-02-25T11:29:24.267Z,2.03
2023-02-25T11:31:56.304Z,3.10
2023-02-25T11:34:28.245Z,3.47
2023-02-25T11:36:59.442Z,4.77
2023-02-25T11:39:30.847Z,2.33
2023-02-25T11:42:18.911Z,3.57
2023-02-25T11:44:49.150Z,4.10
2023-02-25T11:47:26.653Z,3.90
2023-02-25T11:50:23.888Z,1.30
2023-02-25T11:53:05.164Z,2.13
2023-02-25T11:55:57.599Z,5.43
2023-02-25T11:58:39.614Z,6.63
2023-02-25T12:01:22.236Z,1.93
2023-02-25T12:04:24.331Z,5.40
2023-02-25T12:07:20.012Z,6.17
2023-02-25T12:10:31.942Z,7.73
2023-02-25T12:13:44.652Z,5.60
2023-02-25T12:17:24.348Z,7.20
2023-02-25T12:20:52.987Z,4.07
2023-02-25T12:24:21.329Z,4.13
2023-02-25T12:27:40.192Z,11.50
2023-02-25T12:30:40.614Z,6.03
2023-02-25T12:33:35.765Z,4.47
2023-02-25T12:36:27.210Z,9.00
2023-02-25T12:39:21.289Z,7.50
2023-02-25T12:42:01.520Z,5.07
2023-02-25T12:45:13.333Z,5.60
2023-02-25T12:48:03.596Z,11.63
2023-02-25T12:50:53.694Z,6.20
2023-02-25T12:53:45.313Z,6.20
2023-02-25T12:56:44.135Z,5.27
2023-02-25T12:59:58.584Z,5.43
2023-02-25T13:02:53.934Z,8.10
2023-02-25T13:06:16.719Z,6.60
2023-02-25T13:09:15.150Z,7.23
2023-02-25T13:12:14.181Z,9.00
2023-02-25T13:14:58.967Z,8.47
2023-02-25T13:18:09.273Z,6.80
2023-02-25T13:21:02.920Z,7.83
2023-02-25T13:23:58.071Z,11.97
2023-02-25T13:27:25.390Z,3.83
2023-02-25T13:30:16.507Z,7.00
2023-02-25T13:33:01.366Z,8.70
2023-02-25T13:35:46.134Z,3.70
2023-02-25T13:38:35.685Z,9.53
2023-02-25T13:41:29.742Z,4.03
2023-02-25T13:44:34.097Z,4.00
2023-02-25T13:47:36.433Z,7.17
2023-02-25T13:50:41.722Z,11.77
2023-02-25T13:53:33.968Z,15.70
2023-02-25T13:56:52.029Z,7.70
2023-02-25T13:59:56.655Z,9.40
2023-02-25T14:03:02.268Z,6.17
2023-02-25T14:06:03.747Z,7.80
2023-02-25T14:08:58.069Z,6.77
2023-02-25T14:11:51.344Z,10.33
2023-02-25T14:15:02.662Z,7.67
2023-02-25T14:18:04.504Z,9.20
2023-02-25T14:20:51.006Z,5.73
2023-02-25T14:23:33.999Z,3.73
2023-02-25T14:26:27.714Z,7.73
2023-02-25T14:29:16.278Z,5.83
2023-02-25T14:32:14.908Z,6.57
2023-02-25T14:35:07.548Z,10.97
2023-02-25T14:37:47.272Z,7.30
2023-02-25T14:40:29.868Z,4.30
2023-02-25T14:43:32.268Z,4.30
2023-02-25T14:46:16.474Z,5.67
2023-02-25T14:48:59.292Z,4.83
2023-02-25T14:51:56.529Z,9.70
2023-02-25T14:55:26.129Z,4.93
2023-02-25T14:58:30.571Z,7.43
2023-02-25T15:01:46.977Z,5.17
2023-02-25T15:05:30.183Z,13.00
2023-02-25T15:08:35.712Z,4.70
2023-02-25T15:11:31.429Z,4.80
2023-02-25T15:14:47.590Z,5.90
2023-02-25T15:17:57.544Z,8.30
2023-02-25T15:20:35.132Z,14.00
2023-02-25T15:23:13.681Z,6.27
2023-02-25T15:25:49.937Z,9.40
2023-02-25T15:28:45.421Z,4.83
2023-02-25T15:31:39.317Z,9.20
2023-02-25T15:34:37.686Z,8.00
2023-02-25T15:37:32.621Z,9.47
2023-02-25T15:40:34.065Z,5.00
2023-02-25T15:43:24.773Z,5.87
2023-02-25T15:45:55.985Z,6.90
2023-02-25T15:48:37.896Z,4.67
2023-02-25T15:51:14.226Z,12.67
2023-02-25T15:53:48.286Z,12.27
2023-02-25T15:57:01.395Z,6.40
2023-02-25T15:59:46.261Z,7.50
2023-02-25T16:02:42.569Z,11.50
2023-02-25T16:05:27.109Z,10.00
2023-02-25T16:08:13.416Z,6.93
2023-02-25T16:10:46.297Z,9.90
2023-02-25T16:13:24.004Z,5.37
2023-02-25T16:15:57.452Z,10.23
2023-02-25T16:18:33.574Z,5.23
2023-02-25T16:21:07.088Z,7.80
2023-02-25T16:23:40.772Z,10.97
2023-02-25T16:26:23.210Z,8.23
2023-02-25T16:29:07.248Z,8.87
2023-02-25T16:31:42.811Z,9.70
2023-02-25T16:34:17.900Z,10.33
2023-02-25T16:36:55.572Z,6.73
2023-02-25T16:39:27.637Z,6.10
2023-02-25T16:41:56.511Z,11.03
2023-02-25T16:44:32.591Z,8.20
2023-02-25T16:47:01.108Z,4.53
2023-02-25T16:49:34.454Z,9.10
2023-02-25T16:52:03.353Z,7.50
2023-02-25T16:54:36.172Z,4.10
2023-02-25T16:57:09.430Z,5.70
2023-02-25T16:59:40.143Z,6.70
2023-02-25T17:02:25.646Z,11.63
2023-02-25T17:04:56.232Z,5.50
2023-02-25T17:07:27.850Z,6.73
2023-02-25T17:10:00.611Z,4.50
2023-02-25T17:12:33.810Z,9.80
2023-02-25T17:15:09.496Z,10.03
2023-02-25T17:17:42.685Z,7.60
2023-02-25T17:20:18.557Z,14.30
2023-02-25T17:22:47.369Z,5.93
2023-02-25T17:25:17.793Z,7.90
2023-02-25T17:27:50.393Z,6.57
2023-02-25T17:30:45.600Z,9.07
2023-02-25T17:33:26.220Z,7.90
2023-02-25T17:35:59.561Z,5.80
2023-02-25T17:38:29.691Z,5.40
2023-02-25T17:40:59.332Z,6.77
2023-02-25T17:43:38.167Z,5.43
2023-02-25T17:46:26.068Z,6.70
2023-02-25T17:48:58.244Z,5.80
2023-02-25T17:51:33.715Z,4.13
2023-02-25T17:54:08.847Z,11.33
2023-02-25T17:56:38.106Z,8.83
2023-02-25T17:59:09.319Z,8.13
2023-02-25T18:01:54.436Z,9.83
2023-02-25T18:04:26.596Z,9.47
2023-02-25T18:06:56.465Z,12.17
2023-02-25T18:09:39.311Z,10.73
2023-02-25T18:12:16.706Z,10.33
2023-02-25T18:14:47.964Z,7.00
2023-02-25T18:17:28.282Z,12.83
2023-02-25T18:19:59.257Z,9.83
2023-02-25T18:22:35.176Z,7.70
2023-02-25T18:25:07.808Z,12.63
2023-02-25T18:27:37.916Z,11.77
2023-02-25T18:30:20.000Z,11.33
2023-02-25T18:32:49.824Z,11.73
2023-02-25T18:35:19.546Z,9.63
2023-02-25T18:37:52.060Z,12.10
2023-02-25T18:40:26.604Z,10.10
2023-02-25T18:42:55.574Z,8.40
2023-02-25T18:45:26.761Z,12.07
2023-02-25T18:48:00.269Z,10.43
2023-02-25T18:50:32.322Z,11.13
2023-02-25T18:53:01.159Z,9.03
2023-02-25T18:55:32.551Z,9.97
2023-02-25T18:58:02.186Z,13.60
2023-02-25T19:00:30.965Z,12.87
2023-02-25T19:03:03.745Z,9.20
2023-02-25T19:05:32.535Z,8.60
2023-02-25T19:08:01.684Z,7.83
2023-02-25T19:10:37.486Z,11.27
2023-02-25T19:13:09.006Z,13.20
2023-02-25T19:15:37.554Z,11.17
2023-02-25T19:18:07.691Z,13.33
2023-02-25T19:20:36.339Z,8.30
2023-02-25T19:23:04.788Z,14.80
2023-02-25T19:25:36.885Z,9.33
2023-02-25T19:28:07.415Z,8.93
2023-02-25T19:30:39.810Z,8.67
2023-02-25T19:33:11.313Z,11.40
2023-02-25T19:35:42.369Z,8.80
2023-02-25T19:38:15.715Z,12.03
2023-02-25T19:40:45.194Z,13.13
2023-02-25T19:43:15.156Z,11.03
2023-02-25T19:45:44.081Z,10.57
2023-02-25T19:48:14.167Z,9.60
2023-02-25T19:50:42.978Z,9.60
2023-02-25T19:53:12.196Z,14.00
2023-02-25T19:55:40.660Z,11.53
2023-02-25T19:58:09.202Z,10.80
2023-02-25T20:00:38.366Z,16.63
2023-02-25T20:03:07.729Z,18.50
2023-02-25T20:05:37.447Z,13.97
2023-02-25T20:08:06.384Z,13.53
2023-02-25T20:10:35.085Z,13.47
2023-02-25T20:13:03.676Z,14.53
2023-02-25T20:15:32.178Z,16.20
2023-02-25T20:18:00.573Z,11.73
2023-02-25T20:20:29.020Z,21.57
2023-02-25T20:22:58.713Z,13.60
2023-02-25T20:25:29.275Z,9.57
2023-02-25T20:27:57.786Z,12.30
2023-02-25T20:30:26.306Z,14.00
2023-02-25T20:32:54.815Z,12.87
2023-02-25T20:35:26.326Z,10.63
2023-02-25T20:38:29.916Z,15.17
2023-02-25T20:40:58.613Z,13.43
2023-02-25T20:43:27.487Z,20.27
2023-02-25T20:45:56.989Z,15.63
2023-02-25T20:48:30.790Z,17.30
2023-02-25T20:51:00.982Z,14.00
2023-02-25T20:53:32.502Z,14.23
2023-02-25T20:56:00.982Z,17.83
2023-02-25T20:58:29.367Z,10.53
2023-02-25T21:00:57.797Z,11.80
2023-02-25T21:03:26.348Z,22.23
2023-02-25T21:05:54.786Z,11.90
2023-02-25T21:08:23.211Z,16.70
2023-02-25T21:10:53.069Z,25.30
2023-02-25T21:13:21.482Z,17.83
2023-02-25T21:15:49.905Z,15.73
2023-02-25T21:18:18.284Z,19.70
2023-02-25T21:20:46.812Z,17.37
2023-02-25T21:23:15.271Z,14.13
2023-02-25T21:25:43.678Z,11.77
2023-02-25T21:28:13.498Z,25.13
2023-02-25T21:30:42.006Z,9.50
2023-02-25T21:33:12.201Z,12.93
2023-02-25T21:35:40.759Z,13.17
2023-02-25T21:38:09.176Z,19.10
2023-02-25T21:40:37.611Z,11.93
2023-02-25T21:43:05.999Z,11.83
2023-02-25T21:45:35.948Z,20.80
2023-02-25T21:48:04.518Z,11.67
2023-02-25T21:50:33.791Z,12.27
2023-02-25T21:53:04.867Z,21.10
2023-02-25T21:55:33.227Z,10.43
2023-02-25T21:58:01.616Z,9.80
2023-02-25T22:00:29.993Z,11.33
2023-02-25T22:02:59.713Z,13.37
2023-02-25T22:05:28.229Z,22.47
2023-02-25T22:07:56.983Z,14.40
2023-02-25T22:10:25.598Z,11.30
2023-02-25T22:12:55.445Z,10.50
2023-02-25T22:15:23.913Z,10.80
2023-02-25T22:17:52.312Z,13.73
2023-02-25T22:20:22.829Z,16.80
2023-02-25T22:22:51.809Z,9.33
2023-02-25T22:25:20.540Z,15.43
2023-02-25T22:27:49.103Z,10.00
2023-02-25T22:30:18.437Z,15.93
2023-02-25T22:32:46.921Z,16.93
2023-02-25T22:35:15.578Z,11.43
2023-02-25T22:37:45.839Z,11.57
2023-02-25T22:40:14.811Z,8.93
2023-02-25T22:42:43.289Z,11.00
2023-02-25T22:45:12.432Z,15.47
2023-02-25T22:47:40.783Z,14.07
2023-02-25T22:50:10.412Z,11.63
2023-02-25T22:52:38.844Z,10.57
2023-02-25T22:55:11.374Z,10.50
2023-02-25T22:57:39.884Z,8.20
2023-02-25T23:00:17.015Z,11.03
2023-02-25T23:02:45.592Z,15.10
2023-02-25T23:05:14.281Z,7.83
2023-02-25T23:07:43.121Z,9.90
2023-02-25T23:10:13.594Z,10.50
2023-02-25T23:12:42.067Z,13.17
2023-02-25T23:15:11.754Z,11.43
2023-02-25T23:17:40.479Z,12.80
2023-02-25T23:20:11.366Z,9.77
2023-02-25T23:22:39.843Z,10.23
2023-02-25T23:25:10.078Z,9.33
2023-02-25T23:27:39.959Z,17.90
2023-02-25T23:30:10.428Z,8.60
2023-02-25T23:32:40.826Z,11.20
2023-02-25T23:35:11.086Z,7.13
2023-02-25T23:37:39.835Z,7.67
2023-02-25T23:40:11.890Z,13.00
2023-02-25T23:42:43.074Z,7.63
2023-02-25T23:45:15.276Z,11.00
2023-02-25T23:47:44.132Z,17.27
2023-02-25T23:50:16.458Z,10.30
2023-02-25T23:52:47.276Z,12.13
2023-02-25T23:55:16.321Z,11.87
2023-02-25T23:57:46.096Z,13.23
